EPWR/WRO METAR and TAF weather

Enter ICAO airport designator
Station Type Date Time Source
EPWR METAR 2019/08/21 23:00 UTC NOAA

EPWR 212300Z VRB01KT 9999 0300W R29/1200U BCFG NSC 12/12 Q1029


Station Type Date Time Source
EPWR Decoded METAR 2019/08/21 23:00 UTC NOAA

Station name not available
Aug 21, 2019 - 07:00 PM EDT / 2019.08.21 2300 UTC
Wind: Variable at 1 MPH (1 KT):0
Visibility: greater than 7 mile(s):0
Weather: patches of fog
Temperature: 53 F (12 C)
Dew Point: 53 F (12 C)
Relative Humidity: 100%
Pressure (altimeter): 30.39 in. Hg (1029 hPa)
ob: EPWR 212300Z VRB01KT 9999 0300W R29/1200U BCFG NSC 12/12 Q1029
cycle: 23

Station Type Date Time Source
EPWR TAF 2019/08/21 21:33 UTC NOAA

TAF EPWR 212030Z 2121/2221 VRB02KT CAVOK
BECMG 2122/2201 4000 BR
TEMPO 2202/2205 1200 BR
BECMG 2206/2208 09010KT CAVOK

Example: see airport list